sensor_id;sensor_type;location;lat;lon;timestamp;pressure;altitude;pressure_sealevel;temperature;humidity
72961;BME280;61141;46.204;19.774;2023-12-20T00:02:42;100587.06;;;-1.86;100.00
72961;BME280;61141;46.204;19.774;2023-12-20T00:05:50;100561.78;;;-1.80;100.00
72961;BME280;61141;46.204;19.774;2023-12-20T00:08:52;100561.03;;;-1.85;100.00
72961;BME280;61141;46.204;19.774;2023-12-20T00:11:56;100542.25;;;-1.85;100.00
72961;BME280;61141;46.204;19.774;2023-12-20T00:14:59;100553.06;;;-1.95;100.00
72961;BME280;61141;46.204;19.774;2023-12-20T00:18:02;100549.13;;;-2.08;100.00
72961;BME280;61141;46.204;19.774;2023-12-20T00:21:05;100543.41;;;-1.96;100.00
72961;BME280;61141;46.204;19.774;2023-12-20T00:24:08;100542.75;;;-1.83;100.00
72961;BME280;61141;46.204;19.774;2023-12-20T00:27:11;100540.97;;;-1.64;100.00
72961;BME280;61141;46.204;19.774;2023-12-20T00:30:14;100529.78;;;-1.76;100.00
72961;BME280;61141;46.204;19.774;2023-12-20T00:33:16;100529.38;;;-1.88;100.00
72961;BME280;61141;46.204;19.774;2023-12-20T00:36:20;100540.25;;;-1.74;100.00
72961;BME280;61141;46.204;19.774;2023-12-20T00:39:22;100520.12;;;-2.06;100.00
72961;BME280;61141;46.204;19.774;2023-12-20T00:42:25;100515.56;;;-2.05;100.00
72961;BME280;61141;46.204;19.774;2023-12-20T00:45:28;100527.72;;;-2.13;100.00
72961;BME280;61141;46.204;19.774;2023-12-20T00:48:30;100512.19;;;-2.21;100.00
72961;BME280;61141;46.204;19.774;2023-12-20T00:51:33;100520.44;;;-2.12;100.00
72961;BME280;61141;46.204;19.774;2023-12-20T00:54:36;100506.84;;;-2.21;100.00
72961;BME280;61141;46.204;19.774;2023-12-20T00:57:39;100512.19;;;-2.21;100.00
72961;BME280;61141;46.204;19.774;2023-12-20T01:00:42;100507.63;;;-2.20;100.00
72961;BME280;61141;46.204;19.774;2023-12-20T01:03:46;100509.28;;;-1.91;100.00
72961;BME280;61141;46.204;19.774;2023-12-20T01:06:49;100498.72;;;-1.82;100.00
72961;BME280;61141;46.204;19.774;2023-12-20T01:09:52;100494.69;;;-2.08;100.00
72961;BME280;61141;46.204;19.774;2023-12-20T01:12:55;100490.31;;;-1.99;100.00
72961;BME280;61141;46.204;19.774;2023-12-20T01:15:57;100478.75;;;-2.00;100.00
72961;BME280;61141;46.204;19.774;2023-12-20T01:19:00;100477.44;;;-2.02;100.00
72961;BME280;61141;46.204;19.774;2023-12-20T01:22:03;100465.91;;;-2.03;100.00
72961;BME280;61141;46.204;19.774;2023-12-20T01:25:06;100472.41;;;-2.09;100.00
72961;BME280;61141;46.204;19.774;2023-12-20T01:28:09;100469.38;;;-2.31;100.00
72961;BME280;61141;46.204;19.774;2023-12-20T01:31:12;100418.59;;;-2.51;100.00
72961;BME280;61141;46.204;19.774;2023-12-20T01:34:15;100452.97;;;-2.24;100.00
72961;BME280;61141;46.204;19.774;2023-12-20T01:37:18;100448.62;;;-2.20;100.00
72961;BME280;61141;46.204;19.774;2023-12-20T01:40:21;100456.88;;;-2.12;100.00
72961;BME280;61141;46.204;19.774;2023-12-20T01:43:24;100443.81;;;-2.23;100.00
72961;BME280;61141;46.204;19.774;2023-12-20T01:46:33;100438.84;;;-2.35;100.00
72961;BME280;61141;46.204;19.774;2023-12-20T01:49:35;100436.94;;;-2.34;100.00
72961;BME280;61141;46.204;19.774;2023-12-20T01:52:38;100426.06;;;-2.43;100.00
72961;BME280;61141;46.204;19.774;2023-12-20T01:55:42;100418.47;;;-2.36;100.00
72961;BME280;61141;46.204;19.774;2023-12-20T01:58:46;100413.81;;;-2.25;100.00
72961;BME280;61141;46.204;19.774;2023-12-20T02:01:50;100410.47;;;-2.41;100.00
72961;BME280;61141;46.204;19.774;2023-12-20T02:04:53;100397.69;;;-2.49;100.00
72961;BME280;61141;46.204;19.774;2023-12-20T02:07:57;100396.91;;;-2.26;100.00
72961;BME280;61141;46.204;19.774;2023-12-20T02:10:59;100391.97;;;-2.43;100.00
72961;BME280;61141;46.204;19.774;2023-12-20T02:14:02;100384.72;;;-2.42;100.00
72961;BME280;61141;46.204;19.774;2023-12-20T02:17:05;100386.28;;;-2.36;100.00
72961;BME280;61141;46.204;19.774;2023-12-20T02:20:08;100383.03;;;-2.33;100.00
72961;BME280;61141;46.204;19.774;2023-12-20T02:23:11;100365.75;;;-2.51;100.00
72961;BME280;61141;46.204;19.774;2023-12-20T02:26:14;100374.06;;;-2.47;100.00
72961;BME280;61141;46.204;19.774;2023-12-20T02:29:17;100368.87;;;-2.67;100.00
72961;BME280;61141;46.204;19.774;2023-12-20T02:32:20;100359.50;;;-2.70;100.00
72961;BME280;61141;46.204;19.774;2023-12-20T02:35:23;100352.06;;;-2.78;100.00
72961;BME280;61141;46.204;19.774;2023-12-20T02:38:26;100355.50;;;-2.72;100.00
72961;BME280;61141;46.204;19.774;2023-12-20T02:41:29;100343.81;;;-2.53;100.00
72961;BME280;61141;46.204;19.774;2023-12-20T02:44:32;100333.97;;;-2.62;100.00
72961;BME280;61141;46.204;19.774;2023-12-20T02:47:34;100336.66;;;-2.62;100.00
72961;BME280;61141;46.204;19.774;2023-12-20T02:50:37;100330.16;;;-2.56;100.00
72961;BME280;61141;46.204;19.774;2023-12-20T02:53:40;100332.81;;;-2.80;100.00
72961;BME280;61141;46.204;19.774;2023-12-20T02:56:43;100325.50;;;-2.74;100.00
72961;BME280;61141;46.204;19.774;2023-12-20T02:59:45;100325.81;;;-2.81;100.00
72961;BME280;61141;46.204;19.774;2023-12-20T03:02:48;100325.50;;;-2.74;100.00
72961;BME280;61141;46.204;19.774;2023-12-20T03:05:51;100322.50;;;-2.68;100.00
72961;BME280;61141;46.204;19.774;2023-12-20T03:08:54;100320.09;;;-2.69;100.00
72961;BME280;61141;46.204;19.774;2023-12-20T03:11:57;100325.34;;;-2.30;100.00
72961;BME280;61141;46.204;19.774;2023-12-20T03:15:00;100307.87;;;-2.52;100.00
72961;BME280;61141;46.204;19.774;2023-12-20T03:18:03;100300.41;;;-2.31;100.00
72961;BME280;61141;46.204;19.774;2023-12-20T03:21:06;100301.87;;;-2.20;100.00
72961;BME280;61141;46.204;19.774;2023-12-20T03:24:08;100291.63;;;-2.37;100.00
72961;BME280;61141;46.204;19.774;2023-12-20T03:27:11;100298.47;;;-2.49;100.00
72961;BME280;61141;46.204;19.774;2023-12-20T03:30:14;100290.75;;;-2.84;100.00
72961;BME280;61141;46.204;19.774;2023-12-20T03:33:17;100269.56;;;-3.10;100.00
72961;BME280;61141;46.204;19.774;2023-12-20T03:36:20;100265.06;;;-3.19;100.00
72961;BME280;61141;46.204;19.774;2023-12-20T03:39:23;100257.63;;;-2.93;100.00
72961;BME280;61141;46.204;19.774;2023-12-20T03:42:25;100278.97;;;-2.83;100.00
72961;BME280;61141;46.204;19.774;2023-12-20T03:45:28;100268.72;;;-2.76;100.00
72961;BME280;61141;46.204;19.774;2023-12-20T03:48:31;100259.72;;;-2.62;100.00
72961;BME280;61141;46.204;19.774;2023-12-20T03:51:34;100257.94;;;-2.71;100.00
72961;BME280;61141;46.204;19.774;2023-12-20T03:54:37;100245.75;;;-2.59;100.00
72961;BME280;61141;46.204;19.774;2023-12-20T03:57:40;100255.53;;;-2.73;100.00
72961;BME280;61141;46.204;19.774;2023-12-20T04:00:42;100257.16;;;-3.01;100.00
72961;BME280;61141;46.204;19.774;2023-12-20T04:03:45;100251.03;;;-3.06;100.00
72961;BME280;61141;46.204;19.774;2023-12-20T04:06:48;100259.34;;;-3.08;100.00
72961;BME280;61141;46.204;19.774;2023-12-20T04:09:51;100235.62;;;-3.19;100.00
72961;BME280;61141;46.204;19.774;2023-12-20T04:12:54;100253.94;;;-3.03;100.00
72961;BME280;61141;46.204;19.774;2023-12-20T04:15:57;100240.84;;;-3.04;100.00
72961;BME280;61141;46.204;19.774;2023-12-20T04:19:00;100243.06;;;-2.82;100.00
72961;BME280;61141;46.204;19.774;2023-12-20T04:22:04;100235.22;;;-2.79;100.00
72961;BME280;61141;46.204;19.774;2023-12-20T04:25:07;100226.06;;;-2.73;100.00
72961;BME280;61141;46.204;19.774;2023-12-20T04:28:10;100235.06;;;-2.64;100.00
72961;BME280;61141;46.204;19.774;2023-12-20T04:31:13;100231.59;;;-2.88;100.00
72961;BME280;61141;46.204;19.774;2023-12-20T04:34:17;100231.03;;;-2.85;100.00
72961;BME280;61141;46.204;19.774;2023-12-20T04:37:20;100230.78;;;-2.88;100.00
72961;BME280;61141;46.204;19.774;2023-12-20T04:40:23;100227.06;;;-2.92;100.00
72961;BME280;61141;46.204;19.774;2023-12-20T04:43:26;100226.69;;;-2.81;100.00
72961;BME280;61141;46.204;19.774;2023-12-20T04:46:29;100203.44;;;-3.14;100.00
72961;BME280;61141;46.204;19.774;2023-12-20T04:49:32;100222.22;;;-3.19;100.00
72961;BME280;61141;46.204;19.774;2023-12-20T04:52:35;100190.66;;;-3.51;100.00
72961;BME280;61141;46.204;19.774;2023-12-20T04:55:38;100209.09;;;-3.16;100.00
72961;BME280;61141;46.204;19.774;2023-12-20T04:58:42;100204.00;;;-3.17;100.00
72961;BME280;61141;46.204;19.774;2023-12-20T05:01:45;100185.81;;;-3.20;100.00
72961;BME280;61141;46.204;19.774;2023-12-20T05:04:48;100192.44;;;-3.13;100.00
72961;BME280;61141;46.204;19.774;2023-12-20T05:07:52;100206.00;;;-3.33;100.00
72961;BME280;61141;46.204;19.774;2023-12-20T05:10:56;100200.28;;;-3.21;100.00
72961;BME280;61141;46.204;19.774;2023-12-20T05:13:59;100171.66;;;-3.26;100.00
72961;BME280;61141;46.204;19.774;2023-12-20T05:17:02;100182.31;;;-3.16;100.00
72961;BME280;61141;46.204;19.774;2023-12-20T05:20:06;100190.16;;;-3.01;100.00
72961;BME280;61141;46.204;19.774;2023-12-20T05:23:09;100190.53;;;-2.83;100.00
72961;BME280;61141;46.204;19.774;2023-12-20T05:26:14;100193.75;;;-3.10;100.00
72961;BME280;61141;46.204;19.774;2023-12-20T05:29:17;100181.50;;;-3.16;100.00
72961;BME280;61141;46.204;19.774;2023-12-20T05:32:20;100188.41;;;-2.86;100.00
72961;BME280;61141;46.204;19.774;2023-12-20T05:35:23;100182.19;;;-3.06;100.00
72961;BME280;61141;46.204;19.774;2023-12-20T05:38:26;100190.94;;;-2.71;100.00
72961;BME280;61141;46.204;19.774;2023-12-20T05:41:30;100188.25;;;-2.95;100.00
72961;BME280;61141;46.204;19.774;2023-12-20T05:44:33;100189.91;;;-2.75;100.00
72961;BME280;61141;46.204;19.774;2023-12-20T05:47:36;100194.94;;;-2.69;100.00
72961;BME280;61141;46.204;19.774;2023-12-20T05:50:39;100191.97;;;-2.91;100.00
72961;BME280;61141;46.204;19.774;2023-12-20T05:53:42;100185.13;;;-2.78;100.00
72961;BME280;61141;46.204;19.774;2023-12-20T05:56:46;100189.75;;;-2.60;100.00
72961;BME280;61141;46.204;19.774;2023-12-20T05:59:50;100186.50;;;-2.57;100.00
72961;BME280;61141;46.204;19.774;2023-12-20T06:02:53;100187.16;;;-2.47;100.00
72961;BME280;61141;46.204;19.774;2023-12-20T06:05:56;100187.53;;;-2.77;100.00
72961;BME280;61141;46.204;19.774;2023-12-20T06:09:15;100185.63;;;-3.00;100.00
72961;BME280;61141;46.204;19.774;2023-12-20T06:12:18;100182.78;;;-3.37;100.00
72961;BME280;61141;46.204;19.774;2023-12-20T06:15:22;100167.25;;;-3.12;100.00
72961;BME280;61141;46.204;19.774;2023-12-20T06:18:25;100181.78;;;-3.18;100.00
72961;BME280;61141;46.204;19.774;2023-12-20T06:21:28;100185.22;;;-2.88;100.00
72961;BME280;61141;46.204;19.774;2023-12-20T06:24:31;100161.63;;;-2.86;100.00
72961;BME280;61141;46.204;19.774;2023-12-20T06:27:36;100182.16;;;-2.77;100.00
72961;BME280;61141;46.204;19.774;2023-12-20T06:30:38;100173.38;;;-2.59;100.00
72961;BME280;61141;46.204;19.774;2023-12-20T06:33:42;100186.03;;;-2.41;100.00
72961;BME280;61141;46.204;19.774;2023-12-20T06:36:46;100172.56;;;-2.59;100.00
72961;BME280;61141;46.204;19.774;2023-12-20T06:39:49;100177.81;;;-2.97;100.00
72961;BME280;61141;46.204;19.774;2023-12-20T06:42:52;100176.94;;;-3.16;100.00
72961;BME280;61141;46.204;19.774;2023-12-20T06:46:10;100183.81;;;-2.81;100.00
72961;BME280;61141;46.204;19.774;2023-12-20T06:49:13;100178.78;;;-3.40;100.00
72961;BME280;61141;46.204;19.774;2023-12-20T06:52:16;100161.78;;;-3.54;100.00
72961;BME280;61141;46.204;19.774;2023-12-20T06:55:19;100181.75;;;-3.80;100.00
72961;BME280;61141;46.204;19.774;2023-12-20T06:58:23;100183.84;;;-3.72;100.00
72961;BME280;61141;46.204;19.774;2023-12-20T07:01:26;100189.63;;;-3.26;100.00
72961;BME280;61141;46.204;19.774;2023-12-20T07:04:29;100200.91;;;-3.63;100.00
72961;BME280;61141;46.204;19.774;2023-12-20T07:07:32;100181.25;;;-2.91;100.00
72961;BME280;61141;46.204;19.774;2023-12-20T07:10:36;100201.22;;;-3.36;100.00
72961;BME280;61141;46.204;19.774;2023-12-20T07:13:39;100214.19;;;-3.92;100.00
72961;BME280;61141;46.204;19.774;2023-12-20T07:16:43;100186.25;;;-3.71;100.00
72961;BME280;61141;46.204;19.774;2023-12-20T07:19:46;100211.56;;;-2.95;100.00
72961;BME280;61141;46.204;19.774;2023-12-20T07:22:49;100217.84;;;-2.34;100.00
72961;BME280;61141;46.204;19.774;2023-12-20T07:25:53;100219.03;;;-2.45;100.00
72961;BME280;61141;46.204;19.774;2023-12-20T07:28:56;100200.97;;;-2.82;100.00
72961;BME280;61141;46.204;19.774;2023-12-20T07:32:01;100218.00;;;-2.97;100.00
72961;BME280;61141;46.204;19.774;2023-12-20T07:35:04;100207.72;;;-3.13;100.00
72961;BME280;61141;46.204;19.774;2023-12-20T07:38:08;100208.50;;;-2.60;100.00
72961;BME280;61141;46.204;19.774;2023-12-20T07:41:11;100213.78;;;-2.31;100.00
72961;BME280;61141;46.204;19.774;2023-12-20T07:44:14;100212.59;;;-2.02;100.00
72961;BME280;61141;46.204;19.774;2023-12-20T07:47:18;100203.84;;;-2.07;100.00
72961;BME280;61141;46.204;19.774;2023-12-20T07:50:24;100202.22;;;-2.27;100.00
72961;BME280;61141;46.204;19.774;2023-12-20T07:53:27;100200.34;;;-2.08;100.00
72961;BME280;61141;46.204;19.774;2023-12-20T07:56:30;100213.47;;;-2.06;100.00
72961;BME280;61141;46.204;19.774;2023-12-20T07:59:33;100206.28;;;-1.73;100.00
72961;BME280;61141;46.204;19.774;2023-12-20T08:02:36;100185.34;;;-1.39;100.00
72961;BME280;61141;46.204;19.774;2023-12-20T08:05:40;100184.44;;;-1.67;100.00
72961;BME280;61141;46.204;19.774;2023-12-20T08:08:43;100194.69;;;-1.69;100.00
72961;BME280;61141;46.204;19.774;2023-12-20T08:11:48;100189.16;;;-2.15;100.00
72961;BME280;61141;46.204;19.774;2023-12-20T08:14:50;100197.16;;;-2.52;100.00
72961;BME280;61141;46.204;19.774;2023-12-20T08:17:53;100186.69;;;-1.93;100.00
72961;BME280;61141;46.204;19.774;2023-12-20T08:20:57;100186.13;;;-2.27;100.00
72961;BME280;61141;46.204;19.774;2023-12-20T08:24:00;100182.19;;;-1.79;100.00
72961;BME280;61141;46.204;19.774;2023-12-20T08:27:04;100186.84;;;-1.33;100.00
72961;BME280;61141;46.204;19.774;2023-12-20T08:30:10;100179.16;;;-1.40;100.00
72961;BME280;61141;46.204;19.774;2023-12-20T08:33:13;100181.50;;;-1.20;100.00
72961;BME280;61141;46.204;19.774;2023-12-20T08:36:18;100173.22;;;-1.69;100.00
72961;BME280;61141;46.204;19.774;2023-12-20T08:39:24;100173.16;;;-1.83;100.00
72961;BME280;61141;46.204;19.774;2023-12-20T08:42:27;100173.50;;;-0.92;100.00
72961;BME280;61141;46.204;19.774;2023-12-20T08:45:33;100176.19;;;-0.51;100.00
72961;BME280;61141;46.204;19.774;2023-12-20T08:48:37;100169.91;;;-0.47;100.00
72961;BME280;61141;46.204;19.774;2023-12-20T08:51:40;100170.66;;;-0.06;100.00
72961;BME280;61141;46.204;19.774;2023-12-20T08:54:44;100169.19;;;-0.93;100.00
72961;BME280;61141;46.204;19.774;2023-12-20T08:57:47;100168.69;;;-0.41;100.00
72961;BME280;61141;46.204;19.774;2023-12-20T09:00:51;100156.50;;;0.47;100.00
72961;BME280;61141;46.204;19.774;2023-12-20T09:03:54;100160.38;;;-0.04;100.00
72961;BME280;61141;46.204;19.774;2023-12-20T09:06:59;100161.00;;;-0.20;100.00
72961;BME280;61141;46.204;19.774;2023-12-20T09:10:03;100142.81;;;-0.01;100.00
72961;BME280;61141;46.204;19.774;2023-12-20T09:13:07;100141.44;;;0.24;100.00
72961;BME280;61141;46.204;19.774;2023-12-20T09:16:10;100138.41;;;0.70;100.00
72961;BME280;61141;46.204;19.774;2023-12-20T09:19:13;100139.03;;;0.44;100.00
72961;BME280;61141;46.204;19.774;2023-12-20T09:22:16;100114.28;;;-0.02;100.00
72961;BME280;61141;46.204;19.774;2023-12-20T09:25:19;100122.84;;;-0.22;100.00
72961;BME280;61141;46.204;19.774;2023-12-20T09:28:22;100131.38;;;-0.07;100.00
72961;BME280;61141;46.204;19.774;2023-12-20T09:31:25;100118.66;;;-0.28;100.00
72961;BME280;61141;46.204;19.774;2023-12-20T09:34:28;100122.16;;;0.30;100.00
72961;BME280;61141;46.204;19.774;2023-12-20T09:37:32;100109.72;;;0.74;100.00
72961;BME280;61141;46.204;19.774;2023-12-20T09:40:36;100096.84;;;0.40;100.00
72961;BME280;61141;46.204;19.774;2023-12-20T09:43:42;100088.53;;;0.28;100.00
72961;BME280;61141;46.204;19.774;2023-12-20T09:46:49;100098.19;;;0.51;100.00
72961;BME280;61141;46.204;19.774;2023-12-20T09:49:53;100104.69;;;-0.17;100.00
72961;BME280;61141;46.204;19.774;2023-12-20T09:52:57;100124.72;;;0.88;100.00
72961;BME280;61141;46.204;19.774;2023-12-20T09:56:02;100119.81;;;-0.07;100.00
72961;BME280;61141;46.204;19.774;2023-12-20T09:59:05;100125.63;;;-0.27;100.00
72961;BME280;61141;46.204;19.774;2023-12-20T10:02:13;100117.59;;;0.17;100.00
72961;BME280;61141;46.204;19.774;2023-12-20T10:05:18;100124.19;;;0.25;100.00
72961;BME280;61141;46.204;19.774;2023-12-20T10:08:24;100130.41;;;0.12;100.00
72961;BME280;61141;46.204;19.774;2023-12-20T10:11:27;100131.75;;;0.45;100.00
72961;BME280;61141;46.204;19.774;2023-12-20T10:14:30;100129.56;;;0.03;100.00
72961;BME280;61141;46.204;19.774;2023-12-20T10:17:33;100135.50;;;0.35;100.00
72961;BME280;61141;46.204;19.774;2023-12-20T10:20:36;100134.09;;;0.91;100.00
72961;BME280;61141;46.204;19.774;2023-12-20T10:23:39;100121.31;;;1.13;100.00
72961;BME280;61141;46.204;19.774;2023-12-20T10:26:43;100121.19;;;0.79;100.00
72961;BME280;61141;46.204;19.774;2023-12-20T10:29:46;100116.59;;;0.80;100.00
72961;BME280;61141;46.204;19.774;2023-12-20T10:32:49;100108.44;;;0.71;100.00
72961;BME280;61141;46.204;19.774;2023-12-20T10:35:52;100109.78;;;-0.29;100.00
72961;BME280;61141;46.204;19.774;2023-12-20T10:38:56;100095.81;;;-0.17;100.00
72961;BME280;61141;46.204;19.774;2023-12-20T10:42:00;100092.44;;;1.14;100.00
72961;BME280;61141;46.204;19.774;2023-12-20T10:45:03;100099.69;;;1.53;100.00
72961;BME280;61141;46.204;19.774;2023-12-20T10:48:07;100106.84;;;0.39;100.00
72961;BME280;61141;46.204;19.774;2023-12-20T10:51:11;100105.19;;;0.52;100.00
72961;BME280;61141;46.204;19.774;2023-12-20T10:54:14;100099.34;;;-0.44;100.00
72961;BME280;61141;46.204;19.774;2023-12-20T10:57:18;100105.81;;;0.80;100.00
72961;BME280;61141;46.204;19.774;2023-12-20T11:00:22;100096.44;;;0.02;100.00
72961;BME280;61141;46.204;19.774;2023-12-20T11:03:26;100086.47;;;-0.69;100.00
72961;BME280;61141;46.204;19.774;2023-12-20T11:09:42;100095.59;;;0.15;100.00
72961;BME280;61141;46.204;19.774;2023-12-20T11:13:08;100086.97;;;0.27;100.00
72961;BME280;61141;46.204;19.774;2023-12-20T11:16:15;100082.59;;;0.39;100.00
72961;BME280;61141;46.204;19.774;2023-12-20T11:19:18;100076.34;;;0.61;100.00
72961;BME280;61141;46.204;19.774;2023-12-20T11:22:22;100077.16;;;1.49;100.00
72961;BME280;61141;46.204;19.774;2023-12-20T11:25:25;100079.06;;;1.00;100.00
72961;BME280;61141;46.204;19.774;2023-12-20T11:28:29;100071.09;;;0.56;100.00
72961;BME280;61141;46.204;19.774;2023-12-20T11:31:42;100076.34;;;0.92;100.00
72961;BME280;61141;46.204;19.774;2023-12-20T11:34:45;100079.03;;;1.40;100.00
72961;BME280;61141;46.204;19.774;2023-12-20T11:37:48;100081.41;;;1.50;100.00
72961;BME280;61141;46.204;19.774;2023-12-20T11:40:54;100069.38;;;1.90;100.00
72961;BME280;61141;46.204;19.774;2023-12-20T11:43:57;100061.59;;;1.89;100.00
72961;BME280;61141;46.204;19.774;2023-12-20T11:47:00;100061.28;;;1.73;100.00
72961;BME280;61141;46.204;19.774;2023-12-20T11:50:04;100069.03;;;1.66;100.00
72961;BME280;61141;46.204;19.774;2023-12-20T11:53:08;100069.09;;;1.01;100.00
72961;BME280;61141;46.204;19.774;2023-12-20T11:56:11;100063.34;;;1.85;100.00
72961;BME280;61141;46.204;19.774;2023-12-20T11:59:15;100056.47;;;1.36;100.00
72961;BME280;61141;46.204;19.774;2023-12-20T12:02:25;100045.25;;;1.68;100.00
72961;BME280;61141;46.204;19.774;2023-12-20T12:05:30;100041.25;;;1.91;100.00
72961;BME280;61141;46.204;19.774;2023-12-20T12:08:33;100026.81;;;1.87;100.00
72961;BME280;61141;46.204;19.774;2023-12-20T12:11:38;100028.72;;;2.04;100.00
72961;BME280;61141;46.204;19.774;2023-12-20T12:14:41;100034.03;;;2.29;100.00
72961;BME280;61141;46.204;19.774;2023-12-20T12:17:44;100035.97;;;2.29;100.00
72961;BME280;61141;46.204;19.774;2023-12-20T12:21:01;100038.41;;;1.79;100.00
72961;BME280;61141;46.204;19.774;2023-12-20T12:24:12;100048.59;;;1.82;100.00
72961;BME280;61141;46.204;19.774;2023-12-20T12:27:15;100035.72;;;1.88;100.00
72961;BME280;61141;46.204;19.774;2023-12-20T12:30:18;100049.19;;;2.05;100.00
72961;BME280;61141;46.204;19.774;2023-12-20T12:33:21;100045.19;;;1.25;100.00
72961;BME280;61141;46.204;19.774;2023-12-20T12:36:25;100045.38;;;1.89;100.00
72961;BME280;61141;46.204;19.774;2023-12-20T12:39:27;100047.16;;;1.76;100.00
72961;BME280;61141;46.204;19.774;2023-12-20T12:42:32;100040.50;;;1.82;100.00
72961;BME280;61141;46.204;19.774;2023-12-20T12:45:35;100044.91;;;2.04;100.00
72961;BME280;61141;46.204;19.774;2023-12-20T12:48:39;100043.63;;;1.24;100.00
72961;BME280;61141;46.204;19.774;2023-12-20T12:51:44;100045.88;;;1.56;100.00
72961;BME280;61141;46.204;19.774;2023-12-20T12:54:48;100043.94;;;2.00;100.00
72961;BME280;61141;46.204;19.774;2023-12-20T12:57:51;100043.66;;;1.93;100.00
72961;BME280;61141;46.204;19.774;2023-12-20T13:00:54;100041.09;;;1.36;100.00
72961;BME280;61141;46.204;19.774;2023-12-20T13:03:57;100035.06;;;1.48;100.00
72961;BME280;61141;46.204;19.774;2023-12-20T13:07:00;100037.28;;;1.80;100.00
72961;BME280;61141;46.204;19.774;2023-12-20T13:10:03;100034.59;;;1.71;100.00
72961;BME280;61141;46.204;19.774;2023-12-20T13:13:07;100044.75;;;2.00;100.00
72961;BME280;61141;46.204;19.774;2023-12-20T13:16:10;100040.50;;;1.82;100.00
72961;BME280;61141;46.204;19.774;2023-12-20T13:19:13;100040.94;;;2.01;100.00
72961;BME280;61141;46.204;19.774;2023-12-20T13:22:15;100030.59;;;2.20;100.00
72961;BME280;61141;46.204;19.774;2023-12-20T13:25:19;100038.19;;;2.18;100.00
72961;BME280;61141;46.204;19.774;2023-12-20T13:28:21;100027.44;;;1.93;100.00
72961;BME280;61141;46.204;19.774;2023-12-20T13:31:24;100029.09;;;2.40;100.00
72961;BME280;61141;46.204;19.774;2023-12-20T13:34:27;100037.16;;;1.76;100.00
72961;BME280;61141;46.204;19.774;2023-12-20T13:37:30;100045.84;;;1.91;100.00
72961;BME280;61141;46.204;19.774;2023-12-20T13:40:33;100043.47;;;1.98;100.00
72961;BME280;61141;46.204;19.774;2023-12-20T13:43:36;100055.66;;;2.29;100.00
72961;BME280;61141;46.204;19.774;2023-12-20T13:46:40;100048.06;;;2.14;100.00
72961;BME280;61141;46.204;19.774;2023-12-20T13:49:43;100048.78;;;2.49;100.00
72961;BME280;61141;46.204;19.774;2023-12-20T13:52:46;100046.28;;;2.27;100.00
72961;BME280;61141;46.204;19.774;2023-12-20T13:55:49;100031.06;;;2.14;100.00
72961;BME280;61141;46.204;19.774;2023-12-20T13:58:52;100041.78;;;2.57;100.00
72961;BME280;61141;46.204;19.774;2023-12-20T14:01:55;100047.97;;;2.49;100.00
72961;BME280;61141;46.204;19.774;2023-12-20T14:05:00;100047.94;;;2.57;100.00
72961;BME280;61141;46.204;19.774;2023-12-20T14:08:03;100062.91;;;2.55;100.00
72961;BME280;61141;46.204;19.774;2023-12-20T14:11:07;100048.97;;;2.35;100.00
72961;BME280;61141;46.204;19.774;2023-12-20T14:14:09;100049.12;;;2.39;100.00
72961;BME280;61141;46.204;19.774;2023-12-20T14:17:12;100046.25;;;2.44;100.00
72961;BME280;61141;46.204;19.774;2023-12-20T14:20:15;100037.09;;;2.11;100.00
72961;BME280;61141;46.204;19.774;2023-12-20T14:23:19;100037.84;;;2.46;100.00
72961;BME280;61141;46.204;19.774;2023-12-20T14:26:22;100031.28;;;2.55;100.00
72961;BME280;61141;46.204;19.774;2023-12-20T14:29:25;100035.44;;;2.44;100.00
72961;BME280;61141;46.204;19.774;2023-12-20T14:32:28;100019.53;;;2.51;100.00
72961;BME280;61141;46.204;19.774;2023-12-20T14:35:31;100032.91;;;2.39;100.00
72961;BME280;61141;46.204;19.774;2023-12-20T14:38:35;100042.34;;;2.71;100.00
72961;BME280;61141;46.204;19.774;2023-12-20T14:41:39;100037.84;;;2.46;100.00
72961;BME280;61141;46.204;19.774;2023-12-20T14:44:45;100039.84;;;2.57;100.00
72961;BME280;61141;46.204;19.774;2023-12-20T14:47:48;100040.16;;;2.64;100.00
72961;BME280;61141;46.204;19.774;2023-12-20T14:50:52;100031.03;;;2.31;100.00
72961;BME280;61141;46.204;19.774;2023-12-20T14:53:55;100031.91;;;2.52;100.00
72961;BME280;61141;46.204;19.774;2023-12-20T14:56:59;100030.69;;;2.41;100.00
72961;BME280;61141;46.204;19.774;2023-12-20T15:00:07;100036.84;;;2.50;100.00
72961;BME280;61141;46.204;19.774;2023-12-20T15:03:10;100020.03;;;2.36;100.00
72961;BME280;61141;46.204;19.774;2023-12-20T15:06:13;100038.09;;;2.61;100.00
72961;BME280;61141;46.204;19.774;2023-12-20T15:09:16;100045.75;;;2.51;100.00
72961;BME280;61141;46.204;19.774;2023-12-20T15:12:19;100044.41;;;2.65;100.00
72961;BME280;61141;46.204;19.774;2023-12-20T15:15:22;100041.66;;;2.82;100.00
72961;BME280;61141;46.204;19.774;2023-12-20T15:18:25;100032.47;;;3.04;100.00
72961;BME280;61141;46.204;19.774;2023-12-20T15:21:28;100054.37;;;3.20;100.00
72961;BME280;61141;46.204;19.774;2023-12-20T15:24:37;100056.47;;;3.14;100.00
72961;BME280;61141;46.204;19.774;2023-12-20T15:27:44;100056.94;;;3.16;100.00
72961;BME280;61141;46.204;19.774;2023-12-20T15:30:48;100056.72;;;3.50;100.00
72961;BME280;61141;46.204;19.774;2023-12-20T15:33:51;100056.88;;;3.75;100.00
72961;BME280;61141;46.204;19.774;2023-12-20T15:36:55;100047.13;;;3.32;100.00
72961;BME280;61141;46.204;19.774;2023-12-20T15:39:58;100069.41;;;3.59;100.00
72961;BME280;61141;46.204;19.774;2023-12-20T15:43:01;100065.84;;;3.67;100.00